Time;durP1;ratioP1;P1;durP2;ratioP2;P2;SDS_P1;SDS_P2;PMS_P1;PMS_P2;Temp;Humidity;BMP_temperature;BMP_pressure;BME280_temperature;BME280_humidity;BME280_pressure;Samples;Min_cycle;Max_cycle;Signal;HPM_P1;HPM_P2
2024/01/18 00:01:34;;;;;;;10.00;5.03;;;3.00;99.90;;;;;;4990884;28;20089;-20
2024/01/18 00:04:00;;;;;;;9.50;5.15;;;2.80;99.90;;;;;;4991510;28;20354;-19
2024/01/18 00:06:27;;;;;;;9.70;5.20;;;2.80;99.90;;;;;;4989181;28;20227;-18
2024/01/18 00:08:52;;;;;;;9.55;5.35;;;2.80;99.90;;;;;;4990996;28;20046;-18
2024/01/18 00:11:18;;;;;;;9.32;4.93;;;2.80;99.90;;;;;;4986416;28;20097;-17
2024/01/18 00:13:44;;;;;;;12.67;5.33;;;2.80;99.90;;;;;;4988808;28;20195;-18
2024/01/18 00:16:10;;;;;;;9.25;5.05;;;0.50;99.90;;;;;;4986800;28;20394;-17
2024/01/18 00:18:36;;;;;;;9.52;5.18;;;2.80;99.90;;;;;;4969151;28;20039;-18
2024/01/18 00:21:03;;;;;;;9.67;4.70;;;2.80;99.90;;;;;;4984824;28;20236;-19
2024/01/18 00:23:28;;;;;;;10.27;5.13;;;2.80;99.90;;;;;;4987349;28;20042;-18
2024/01/18 00:25:54;;;;;;;8.90;4.90;;;2.80;99.90;;;;;;4989033;28;20341;-18
2024/01/18 00:28:20;;;;;;;9.13;4.87;;;2.80;99.90;;;;;;4982628;28;20368;-17
2024/01/18 00:30:46;;;;;;;8.30;4.80;;;2.80;99.90;;;;;;4982186;28;20042;-18
2024/01/18 00:33:11;;;;;;;9.10;4.63;;;2.80;99.90;;;;;;4983444;28;20297;-18
2024/01/18 00:35:37;;;;;;;9.05;4.75;;;2.70;99.90;;;;;;4956330;28;20338;-18
2024/01/18 00:38:03;;;;;;;8.50;4.40;;;2.80;99.90;;;;;;4987523;28;20103;-17
2024/01/18 00:40:30;;;;;;;10.10;5.10;;;2.80;99.90;;;;;;4970860;28;20042;-18
2024/01/18 00:42:56;;;;;;;9.07;5.00;;;2.80;99.90;;;;;;4987362;28;20054;-17
2024/01/18 00:45:21;;;;;;;8.23;4.67;;;2.80;99.90;;;;;;4993052;28;20050;-17
2024/01/18 00:47:47;;;;;;;9.15;5.05;;;2.80;99.90;;;;;;4994152;28;20409;-18
2024/01/18 00:50:13;;;;;;;8.97;4.60;;;2.70;99.90;;;;;;4960256;28;20267;-18
2024/01/18 00:52:39;;;;;;;9.10;4.80;;;2.80;99.90;;;;;;4971195;28;20045;-19
2024/01/18 00:55:06;;;;;;;9.27;4.93;;;2.70;99.90;;;;;;4989858;28;20037;-18
2024/01/18 00:57:33;;;;;;;8.10;4.75;;;2.70;99.90;;;;;;4992933;28;20313;-17
2024/01/18 00:59:59;;;;;;;8.63;4.67;;;2.70;99.90;;;;;;4976772;28;20101;-17
2024/01/18 01:02:25;;;;;;;9.05;4.55;;;2.70;99.90;;;;;;4991428;28;20046;-18
2024/01/18 01:04:51;;;;;;;8.00;4.10;;;2.70;99.90;;;;;;4973296;28;20407;-18
2024/01/18 01:07:16;;;;;;;8.10;4.63;;;2.70;99.90;;;;;;4989883;28;20286;-18
2024/01/18 01:09:42;;;;;;;9.20;4.88;;;2.70;99.90;;;;;;4989947;28;20366;-19
2024/01/18 01:12:08;;;;;;;10.43;4.93;;;2.70;99.90;;;;;;4991360;28;20259;-17
2024/01/18 01:14:34;;;;;;;10.65;4.95;;;2.70;99.90;;;;;;4990750;28;20317;-18
2024/01/18 01:16:59;;;;;;;8.37;4.80;;;2.70;99.90;;;;;;4980061;28;20323;-18
2024/01/18 01:19:25;;;;;;;8.27;4.85;;;2.70;99.90;;;;;;4987650;28;20425;-17
2024/01/18 01:21:51;;;;;;;8.90;4.80;;;2.60;99.90;;;;;;4992334;28;20251;-18
2024/01/18 01:24:17;;;;;;;8.20;4.55;;;2.60;99.90;;;;;;4976724;28;20378;-17
2024/01/18 01:26:42;;;;;;;8.00;4.80;;;2.60;99.90;;;;;;4990953;28;20041;-18
2024/01/18 01:29:10;;;;;;;8.88;4.78;;;2.60;99.90;;;;;;4980233;28;20032;-17
2024/01/18 01:31:36;;;;;;;7.55;4.45;;;2.70;99.90;;;;;;4992277;28;20050;-18
2024/01/18 01:34:02;;;;;;;8.80;4.10;;;2.60;99.90;;;;;;4992785;28;20417;-17
2024/01/18 01:36:27;;;;;;;7.43;4.38;;;2.60;99.90;;;;;;4986883;28;20042;-18
2024/01/18 01:38:53;;;;;;;8.23;4.60;;;2.60;99.90;;;;;;4991274;28;20069;-19
2024/01/18 01:41:19;;;;;;;7.15;4.25;;;2.60;99.90;;;;;;4989034;28;20133;-19
2024/01/18 01:44:01;;;;;;;9.40;4.70;;;2.60;99.90;;;;;;4971249;28;20270;-21
2024/01/18 01:46:27;;;;;;;8.82;4.90;;;2.50;99.90;;;;;;4973538;28;20046;-18
2024/01/18 01:49:00;;;;;;;8.70;4.28;;;2.60;99.90;;;;;;4985301;28;20054;-19
2024/01/18 01:51:31;;;;;;;7.10;4.15;;;2.50;99.90;;;;;;4985997;28;20457;-19
2024/01/18 01:53:57;;;;;;;7.07;3.67;;;2.50;99.90;;;;;;4986405;28;20050;-20
2024/01/18 01:56:24;;;;;;;8.85;4.70;;;2.50;99.90;;;;;;4987248;28;20373;-19
2024/01/18 01:58:50;;;;;;;7.45;4.30;;;2.50;99.90;;;;;;4977826;28;20037;-19
2024/01/18 02:01:17;;;;;;;9.48;4.47;;;2.50;99.90;;;;;;4973083;28;20065;-18
2024/01/18 02:03:43;;;;;;;8.13;4.30;;;2.50;99.90;;;;;;4988573;28;20359;-18
2024/01/18 02:06:09;;;;;;;7.97;4.20;;;2.50;99.90;;;;;;4993052;28;20576;-19
2024/01/18 02:08:35;;;;;;;7.20;4.47;;;2.40;99.90;;;;;;4979764;28;20041;-19
2024/01/18 02:11:03;;;;;;;8.05;4.72;;;2.70;99.90;;;;;;4986087;28;20045;-18
2024/01/18 02:13:30;;;;;;;9.13;4.35;;;2.40;99.90;;;;;;4988555;28;20230;-20
2024/01/18 02:15:56;;;;;;;9.07;4.60;;;2.50;99.90;;;;;;4988192;28;20058;-19
2024/01/18 02:18:21;;;;;;;7.13;4.30;;;2.40;99.90;;;;;;4966715;28;20105;-19
2024/01/18 02:20:47;;;;;;;6.97;3.95;;;2.40;99.90;;;;;;4988570;28;20057;-19
2024/01/18 02:23:14;;;;;;;8.43;4.43;;;2.40;99.90;;;;;;4989167;28;20034;-18
2024/01/18 02:25:39;;;;;;;8.38;4.25;;;2.40;99.90;;;;;;4978048;28;20047;-19
2024/01/18 02:28:05;;;;;;;7.13;4.10;;;2.40;99.90;;;;;;4993837;28;20050;-18
2024/01/18 02:30:31;;;;;;;8.20;4.10;;;2.40;99.90;;;;;;4989949;28;20042;-17
2024/01/18 02:32:56;;;;;;;7.07;3.80;;;2.30;99.90;;;;;;4976325;28;20237;-17
2024/01/18 02:35:22;;;;;;;7.72;4.15;;;2.30;99.90;;;;;;4971480;28;20035;-17
2024/01/18 02:37:49;;;;;;;8.10;4.30;;;2.30;99.90;;;;;;4973386;28;20042;-18
2024/01/18 02:40:15;;;;;;;7.60;3.80;;;2.30;99.90;;;;;;4989816;28;20056;-17
2024/01/18 02:42:40;;;;;;;7.57;4.45;;;2.30;99.90;;;;;;4992956;28;20034;-18
2024/01/18 02:45:07;;;;;;;6.95;3.97;;;2.30;99.90;;;;;;4993013;28;20322;-18
2024/01/18 02:47:35;;;;;;;8.00;4.72;;;2.30;99.90;;;;;;4964781;28;20034;-18
2024/01/18 02:50:00;;;;;;;8.25;4.60;;;2.10;99.90;;;;;;4988075;28;20057;-18
2024/01/18 02:52:26;;;;;;;7.23;4.50;;;2.30;99.90;;;;;;4990221;28;20047;-19
2024/01/18 02:54:52;;;;;;;7.23;3.70;;;2.30;99.90;;;;;;4992156;28;20034;-19
2024/01/18 02:57:17;;;;;;;7.93;4.00;;;2.30;99.90;;;;;;4986947;28;20030;-19
2024/01/18 02:59:43;;;;;;;7.23;4.33;;;2.30;99.90;;;;;;4986735;28;20049;-19
2024/01/18 03:02:09;;;;;;;10.40;4.57;;;2.30;99.90;;;;;;4985729;28;20304;-19
2024/01/18 03:04:34;;;;;;;8.23;4.20;;;2.30;99.90;;;;;;4992918;28;20096;-18
2024/01/18 03:07:00;;;;;;;6.55;3.60;;;2.30;99.90;;;;;;4973460;28;20885;-18
2024/01/18 03:09:26;;;;;;;7.83;4.37;;;2.30;99.90;;;;;;4987394;28;20030;-18
2024/01/18 03:11:52;;;;;;;9.00;4.27;;;2.30;99.90;;;;;;4988577;28;20273;-19
2024/01/18 03:14:20;;;;;;;7.10;3.95;;;2.20;99.90;;;;;;4977952;28;20067;-20
2024/01/18 03:16:46;;;;;;;6.73;3.83;;;2.30;99.90;;;;;;4986912;28;20046;-18
2024/01/18 03:19:12;;;;;;;8.63;4.18;;;2.20;99.90;;;;;;4977293;28;20339;-19
2024/01/18 03:21:38;;;;;;;8.00;4.47;;;2.20;99.90;;;;;;4986600;28;20503;-18
2024/01/18 03:24:04;;;;;;;8.98;4.15;;;2.20;99.90;;;;;;4986714;28;20031;-19
2024/01/18 03:26:30;;;;;;;7.80;4.47;;;2.20;99.90;;;;;;4987524;28;20059;-18
2024/01/18 03:28:56;;;;;;;9.25;4.68;;;2.20;99.90;;;;;;4975554;28;20080;-19
2024/01/18 03:31:22;;;;;;;9.13;4.50;;;0.80;99.90;;;;;;4986650;28;20046;-18
2024/01/18 03:33:47;;;;;;;7.00;4.00;;;2.20;99.90;;;;;;4972788;28;20042;-18
2024/01/18 03:36:13;;;;;;;8.97;4.43;;;2.20;99.90;;;;;;4990137;28;20046;-19
2024/01/18 03:38:39;;;;;;;8.27;4.30;;;2.20;99.90;;;;;;4988039;28;20049;-18
2024/01/18 03:41:04;;;;;;;7.43;3.97;;;2.10;99.90;;;;;;4979521;28;20414;-18
2024/01/18 03:43:30;;;;;;;8.15;4.50;;;2.10;99.90;;;;;;4990748;28;20086;-18
2024/01/18 03:45:56;;;;;;;8.43;4.17;;;0.00;99.90;;;;;;4988123;28;20067;-18
2024/01/18 03:48:21;;;;;;;7.75;4.28;;;2.10;99.90;;;;;;4986274;28;20034;-18
2024/01/18 03:50:47;;;;;;;7.87;4.10;;;2.10;99.90;;;;;;4987366;28;20034;-18
2024/01/18 03:53:13;;;;;;;8.23;4.45;;;2.10;99.90;;;;;;4970439;28;20047;-17
2024/01/18 03:55:38;;;;;;;7.73;4.00;;;2.10;99.90;;;;;;4987032;28;20035;-17
2024/01/18 03:58:04;;;;;;;7.80;3.80;;;2.20;99.90;;;;;;4976939;28;20061;-17
2024/01/18 04:00:30;;;;;;;8.15;4.60;;;0.50;99.90;;;;;;4989142;28;20041;-18
2024/01/18 04:02:56;;;;;;;7.78;3.67;;;2.10;99.90;;;;;;4971755;28;20369;-18
2024/01/18 04:05:21;;;;;;;7.30;4.03;;;2.00;99.90;;;;;;4986216;28;20050;-18
2024/01/18 04:07:47;;;;;;;7.30;3.95;;;2.00;99.90;;;;;;4988683;28;20273;-17
2024/01/18 04:10:12;;;;;;;7.30;3.90;;;2.20;99.90;;;;;;4987976;28;20034;-18
2024/01/18 04:12:38;;;;;;;7.80;4.00;;;2.10;99.90;;;;;;4991786;28;20045;-18
2024/01/18 04:15:05;;;;;;;8.18;4.28;;;2.00;99.90;;;;;;4987190;28;20022;-17
2024/01/18 04:17:31;;;;;;;6.78;4.10;;;2.00;99.90;;;;;;4988794;28;20092;-18
2024/01/18 04:19:57;;;;;;;8.10;4.00;;;2.00;99.90;;;;;;4971602;28;20050;-17
2024/01/18 04:22:23;;;;;;;7.68;4.38;;;1.90;99.90;;;;;;4968940;28;20062;-17
2024/01/18 04:24:50;;;;;;;7.82;4.38;;;2.00;99.90;;;;;;4954948;28;20176;-18
2024/01/18 04:27:16;;;;;;;9.40;4.50;;;1.90;99.90;;;;;;4956525;28;20050;-18
2024/01/18 04:29:42;;;;;;;7.57;4.13;;;1.90;99.90;;;;;;4972990;28;20312;-17
2024/01/18 04:32:08;;;;;;;7.05;4.32;;;1.90;99.90;;;;;;4958248;28;20312;-17
2024/01/18 04:34:34;;;;;;;7.32;3.55;;;1.90;99.90;;;;;;4970390;28;20065;-17
2024/01/18 04:37:00;;;;;;;9.23;5.00;;;1.90;99.90;;;;;;4971429;28;20035;-18
2024/01/18 04:39:27;;;;;;;7.90;4.22;;;1.80;99.90;;;;;;4970636;28;20402;-18
2024/01/18 04:41:53;;;;;;;7.47;4.28;;;1.80;99.90;;;;;;4958549;28;20027;-18
2024/01/18 04:44:18;;;;;;;7.53;4.67;;;1.80;99.90;;;;;;4953523;28;20231;-17
2024/01/18 04:46:44;;;;;;;8.53;4.30;;;1.90;99.90;;;;;;4958360;28;20289;-17
2024/01/18 04:49:10;;;;;;;8.70;4.20;;;1.80;99.90;;;;;;4972454;28;20058;-18
2024/01/18 04:51:36;;;;;;;7.40;4.30;;;1.80;99.90;;;;;;4954870;28;20031;-18
2024/01/18 04:54:01;;;;;;;7.47;4.28;;;1.80;99.90;;;;;;4970869;28;20089;-20
2024/01/18 04:56:28;;;;;;;7.70;4.13;;;1.70;99.90;;;;;;4972479;28;20031;-18
2024/01/18 04:58:54;;;;;;;8.05;4.40;;;1.70;99.90;;;;;;4974365;28;20185;-19
2024/01/18 05:01:20;;;;;;;7.50;4.07;;;1.80;99.90;;;;;;4972230;28;20275;-19
2024/01/18 05:03:46;;;;;;;7.47;4.30;;;1.80;99.90;;;;;;4952280;28;20343;-18
2024/01/18 05:06:12;;;;;;;8.02;4.07;;;1.70;99.90;;;;;;4952409;28;20054;-18
2024/01/18 05:08:37;;;;;;;6.17;4.00;;;1.70;99.90;;;;;;4974943;28;20042;-16
2024/01/18 05:11:03;;;;;;;7.40;4.05;;;1.70;99.90;;;;;;4970549;28;20039;-19
2024/01/18 05:13:29;;;;;;;7.20;4.20;;;1.60;99.90;;;;;;4970947;28;20041;-17
2024/01/18 05:15:55;;;;;;;7.72;4.40;;;1.60;99.90;;;;;;4957782;28;20043;-17
2024/01/18 05:18:21;;;;;;;7.35;4.03;;;1.50;99.90;;;;;;4970523;28;20038;-17
2024/01/18 05:20:48;;;;;;;7.63;4.00;;;1.50;99.90;;;;;;4971311;28;20398;-17
2024/01/18 05:23:13;;;;;;;6.17;3.93;;;1.40;99.90;;;;;;4952612;28;20606;-17
2024/01/18 05:25:39;;;;;;;7.65;4.03;;;1.30;99.90;;;;;;4971146;28;20049;-17
2024/01/18 05:28:05;;;;;;;6.70;3.77;;;1.30;99.90;;;;;;4971772;28;20054;-17
2024/01/18 05:30:30;;;;;;;7.93;4.07;;;1.20;99.90;;;;;;4969623;28;20043;-17
2024/01/18 05:32:56;;;;;;;7.77;3.70;;;1.10;99.90;;;;;;4971535;28;20042;-17
2024/01/18 05:35:22;;;;;;;6.95;3.70;;;1.10;99.90;;;;;;4971711;28;20043;-17
2024/01/18 05:37:47;;;;;;;6.57;3.73;;;1.00;99.90;;;;;;4969364;28;20133;-17
2024/01/18 05:40:13;;;;;;;6.53;3.30;;;0.90;99.90;;;;;;4975846;28;20467;-17
2024/01/18 05:42:39;;;;;;;6.07;3.40;;;0.80;99.90;;;;;;4968765;28;20034;-16
2024/01/18 05:45:06;;;;;;;5.83;3.40;;;0.80;99.90;;;;;;4970771;28;20357;-17
2024/01/18 05:47:31;;;;;;;6.22;3.55;;;0.70;99.90;;;;;;4961359;28;20314;-17
2024/01/18 05:49:57;;;;;;;6.27;3.43;;;0.60;99.90;;;;;;4973362;28;20042;-16
2024/01/18 05:52:23;;;;;;;6.30;3.25;;;0.60;99.90;;;;;;4957855;28;20078;-16
2024/01/18 05:54:48;;;;;;;5.57;3.20;;;0.50;99.90;;;;;;4971374;28;20109;-16
2024/01/18 05:57:14;;;;;;;5.95;3.25;;;0.40;99.90;;;;;;4965125;28;20046;-17
2024/01/18 05:59:40;;;;;;;4.97;2.80;;;0.40;99.90;;;;;;4972073;28;20042;-17
2024/01/18 06:02:06;;;;;;;5.30;3.58;;;0.30;99.90;;;;;;4959962;28;20046;-18
2024/01/18 06:04:32;;;;;;;5.40;3.20;;;0.30;99.90;;;;;;4952724;28;20049;-17
2024/01/18 06:06:58;;;;;;;5.23;3.30;;;0.20;99.90;;;;;;4971032;28;20397;-17
2024/01/18 06:09:23;;;;;;;5.10;3.08;;;0.20;99.90;;;;;;4976610;28;20033;-17
2024/01/18 06:11:49;;;;;;;4.23;2.83;;;0.10;99.90;;;;;;4949714;28;20039;-17
2024/01/18 06:14:18;;;;;;;4.78;2.88;;;0.10;99.90;;;;;;4974544;28;20146;-17
2024/01/18 06:16:44;;;;;;;5.28;2.80;;;0.00;99.90;;;;;;4968650;28;20054;-17
2024/01/18 06:19:11;;;;;;;4.63;2.50;;;0.00;99.90;;;;;;4974584;28;20409;-17
2024/01/18 06:21:37;;;;;;;4.18;2.65;;;0.00;99.90;;;;;;4987546;28;20219;-18
2024/01/18 06:24:03;;;;;;;4.90;2.80;;;-0.10;99.90;;;;;;4994369;28;20046;-17
2024/01/18 06:26:29;;;;;;;5.07;3.05;;;-0.10;99.90;;;;;;4994859;28;20050;-17
2024/01/18 06:28:55;;;;;;;8.13;3.65;;;1.80;99.90;;;;;;4995006;28;20064;-18
2024/01/18 06:31:26;;;;;;;5.43;3.20;;;-0.20;99.90;;;;;;4992837;28;20097;-25
2024/01/18 06:33:53;;;;;;;4.70;3.03;;;-0.30;99.90;;;;;;4980172;28;20046;-17
2024/01/18 06:36:19;;;;;;;4.75;2.70;;;-0.30;99.90;;;;;;4983466;28;20035;-25
2024/01/18 06:38:45;;;;;;;4.33;2.90;;;-0.30;99.90;;;;;;4995306;28;20173;-17
2024/01/18 06:41:11;;;;;;;4.38;2.65;;;1.60;99.90;;;;;;4976314;28;20049;-18
2024/01/18 06:43:37;;;;;;;4.25;2.58;;;-0.40;99.90;;;;;;4995525;28;20062;-18
2024/01/18 06:46:03;;;;;;;5.05;2.85;;;-0.40;99.90;;;;;;4977753;28;20042;-17
2024/01/18 06:48:29;;;;;;;4.67;3.00;;;-0.50;99.90;;;;;;4996610;28;20066;-18
2024/01/18 06:50:54;;;;;;;4.28;2.53;;;-0.50;99.90;;;;;;4997512;28;20042;-18
2024/01/18 06:53:20;;;;;;;4.53;2.40;;;-0.60;99.90;;;;;;4986191;28;20089;-17
2024/01/18 06:55:46;;;;;;;4.57;2.77;;;-0.50;99.90;;;;;;4991159;28;20302;-17
2024/01/18 06:58:12;;;;;;;3.80;2.60;;;-0.60;99.90;;;;;;4981375;28;20038;-19
2024/01/18 07:00:38;;;;;;;4.47;2.57;;;-0.60;99.90;;;;;;4991031;28;20404;-17
2024/01/18 07:03:07;;;;;;;4.28;2.58;;;-0.60;99.90;;;;;;4967553;28;20346;-18
2024/01/18 07:05:32;;;;;;;3.70;2.50;;;-0.70;99.90;;;;;;4988544;28;20041;-17
2024/01/18 07:07:58;;;;;;;5.37;3.50;;;-0.70;99.90;;;;;;4994426;28;20105;-17
2024/01/18 07:10:24;;;;;;;6.32;3.05;;;-0.70;99.90;;;;;;4994129;28;20054;-17
2024/01/18 07:12:49;;;;;;;4.73;2.80;;;-0.70;99.90;;;;;;4990732;28;20464;-17
2024/01/18 07:15:15;;;;;;;6.03;2.97;;;-0.80;99.90;;;;;;4989597;28;20043;-19
2024/01/18 07:17:41;;;;;;;4.43;2.60;;;-0.80;99.90;;;;;;4987901;28;20192;-17
2024/01/18 07:20:08;;;;;;;5.80;3.10;;;-0.80;99.90;;;;;;4990915;28;20027;-17
2024/01/18 07:22:33;;;;;;;5.00;2.65;;;-0.90;99.90;;;;;;4991862;28;20101;-23
2024/01/18 07:25:01;;;;;;;5.38;2.85;;;-0.90;99.90;;;;;;4957808;28;20364;-17
2024/01/18 07:27:27;;;;;;;5.30;3.07;;;-0.90;99.90;;;;;;4987114;28;20074;-17
2024/01/18 07:29:53;;;;;;;4.45;2.60;;;-1.00;99.90;;;;;;4963003;28;20038;-17
2024/01/18 07:32:18;;;;;;;5.30;3.10;;;-1.10;99.90;;;;;;4986346;28;20354;-17
2024/01/18 07:34:45;;;;;;;4.18;2.60;;;-1.00;99.90;;;;;;4971278;28;20389;-17
2024/01/18 07:37:13;;;;;;;6.30;3.40;;;-1.10;99.90;;;;;;4988520;28;20037;-17
2024/01/18 07:39:44;;;;;;;4.90;2.75;;;-1.10;99.90;;;;;;4986216;28;20038;-17
2024/01/18 07:42:09;;;;;;;4.87;2.90;;;-1.10;99.90;;;;;;4987713;28;20077;-18
2024/01/18 07:44:35;;;;;;;5.47;2.88;;;-1.10;99.90;;;;;;4991014;28;20274;-18
2024/01/18 07:47:01;;;;;;;4.80;3.00;;;-1.10;99.90;;;;;;4986698;28;20026;-18
2024/01/18 07:49:27;;;;;;;5.57;3.10;;;-1.10;99.90;;;;;;4988156;28;20046;-18
2024/01/18 07:51:53;;;;;;;4.53;2.72;;;-1.10;99.90;;;;;;4991224;28;20030;-18
2024/01/18 07:54:18;;;;;;;5.68;3.17;;;-1.10;99.90;;;;;;4987859;28;20064;-18
2024/01/18 07:56:44;;;;;;;5.25;2.97;;;-1.10;99.90;;;;;;4988207;28;20241;-18
2024/01/18 07:59:10;;;;;;;5.43;2.77;;;-1.10;99.90;;;;;;4989989;28;20368;-17
2024/01/18 08:01:35;;;;;;;5.27;2.70;;;-1.10;99.90;;;;;;4992220;28;20038;-18
2024/01/18 08:04:01;;;;;;;5.28;2.55;;;-1.20;99.90;;;;;;4986403;28;20357;-17
2024/01/18 08:06:27;;;;;;;5.00;3.27;;;-1.10;99.90;;;;;;4986954;28;20054;-18
2024/01/18 08:08:52;;;;;;;5.13;2.78;;;-1.10;99.90;;;;;;4988002;28;20277;-17
2024/01/18 08:11:18;;;;;;;5.50;2.90;;;-1.10;99.90;;;;;;4990337;28;20500;-17
2024/01/18 08:13:45;;;;;;;4.75;2.80;;;-1.10;99.90;;;;;;4991714;28;20062;-18
2024/01/18 08:16:10;;;;;;;6.20;3.45;;;-1.00;99.90;;;;;;4974462;28;20041;-17
2024/01/18 08:18:37;;;;;;;6.93;3.77;;;-1.00;99.90;;;;;;4988365;28;20105;-19
2024/01/18 08:21:03;;;;;;;6.43;3.80;;;-0.90;99.90;;;;;;4989156;28;20278;-18
2024/01/18 08:23:29;;;;;;;6.38;3.95;;;-0.90;99.90;;;;;;4989090;28;20035;-18
2024/01/18 08:25:55;;;;;;;5.13;2.95;;;-0.80;99.90;;;;;;4985504;28;20325;-19
2024/01/18 08:28:21;;;;;;;6.97;4.07;;;-0.80;99.90;;;;;;4986254;28;20038;-19
2024/01/18 08:30:47;;;;;;;6.03;3.30;;;-0.70;99.90;;;;;;4983360;28;20038;-19
2024/01/18 08:33:18;;;;;;;6.78;3.88;;;-0.60;99.90;;;;;;4988355;28;20066;-18
2024/01/18 08:35:44;;;;;;;7.13;4.03;;;-0.60;99.90;;;;;;4988156;28;20503;-18
2024/01/18 08:38:09;;;;;;;7.13;4.03;;;-0.50;99.90;;;;;;4986868;28;20057;-19
2024/01/18 08:40:35;;;;;;;8.00;4.30;;;-0.30;99.90;;;;;;4990198;28;20022;-17
2024/01/18 08:43:01;;;;;;;7.85;4.55;;;-0.20;99.90;;;;;;4985539;28;20081;-18
2024/01/18 08:45:29;;;;;;;6.97;4.38;;;-0.10;99.90;;;;;;4989370;28;20046;-17
2024/01/18 08:47:54;;;;;;;8.90;4.40;;;0.10;99.90;;;;;;4994131;28;20257;-18
2024/01/18 08:50:23;;;;;;;10.77;5.97;;;0.30;99.90;;;;;;4964868;28;20050;-17
2024/01/18 08:52:51;;;;;;;9.60;5.25;;;0.40;99.90;;;;;;4988886;28;20041;-18
2024/01/18 08:55:18;;;;;;;9.13;5.30;;;0.60;99.90;;;;;;4989990;28;20030;-17
2024/01/18 08:57:44;;;;;;;9.97;6.00;;;0.80;99.90;;;;;;4987651;28;20042;-17
2024/01/18 09:00:13;;;;;;;10.43;5.05;;;1.00;99.90;;;;;;4966307;28;20038;-18
2024/01/18 09:02:39;;;;;;;8.57;5.30;;;1.20;99.90;;;;;;4991679;28;20448;-18
2024/01/18 09:05:06;;;;;;;9.55;5.20;;;1.40;99.90;;;;;;4981056;28;20053;-20
2024/01/18 09:07:32;;;;;;;10.07;5.60;;;1.50;99.90;;;;;;4992741;28;20034;-18
2024/01/18 09:09:58;;;;;;;9.77;5.70;;;1.70;99.90;;;;;;4992962;28;20038;-17
2024/01/18 09:12:24;;;;;;;12.02;6.15;;;2.00;99.90;;;;;;4989360;28;20035;-17
2024/01/18 09:14:49;;;;;;;12.50;6.03;;;1.90;99.90;;;;;;4988835;28;20030;-17
2024/01/18 09:17:15;;;;;;;11.43;6.10;;;2.00;99.90;;;;;;4987353;28;20346;-17
2024/01/18 09:19:42;;;;;;;11.47;5.97;;;2.10;99.90;;;;;;4981333;28;20344;-17
2024/01/18 09:22:09;;;;;;;10.88;6.00;;;2.20;99.90;;;;;;4991160;28;20244;-18
2024/01/18 09:24:35;;;;;;;12.48;6.20;;;2.40;99.90;;;;;;4988233;28;20050;-17
2024/01/18 09:27:01;;;;;;;12.50;6.27;;;2.50;99.90;;;;;;4988600;28;20263;-17
2024/01/18 09:29:26;;;;;;;13.27;6.53;;;2.60;99.90;;;;;;4988678;28;20295;-16
2024/01/18 09:31:53;;;;;;;12.48;6.80;;;2.70;99.90;;;;;;4987993;28;20049;-15
2024/01/18 09:34:19;;;;;;;11.77;5.77;;;2.80;99.90;;;;;;4972017;28;20164;-15
2024/01/18 09:36:44;;;;;;;12.07;6.65;;;3.00;99.90;;;;;;4989510;28;20034;-16
2024/01/18 09:39:15;;;;;;;12.07;6.53;;;3.10;99.90;;;;;;4995651;28;20066;-16
2024/01/18 09:41:50;;;;;;;12.20;6.38;;;3.30;99.90;;;;;;4993065;28;20057;-15
2024/01/18 09:44:30;;;;;;;12.80;6.57;;;3.50;99.90;;;;;;4988265;28;20156;-15
2024/01/18 09:46:57;;;;;;;11.40;6.80;;;3.90;99.90;;;;;;4990867;28;20038;-15
2024/01/18 09:49:23;;;;;;;11.20;6.20;;;4.20;99.90;;;;;;4990164;28;20062;-14
2024/01/18 09:51:51;;;;;;;12.23;7.00;;;4.70;99.90;;;;;;4993157;28;20166;-14
2024/01/18 09:54:18;;;;;;;14.82;7.57;;;5.00;99.90;;;;;;4982770;28;20105;-14
2024/01/18 09:56:45;;;;;;;15.77;8.52;;;5.50;99.90;;;;;;4993197;28;20433;-15
2024/01/18 09:59:26;;;;;;;14.07;8.10;;;6.00;99.90;;;;;;4988906;28;20042;-15
2024/01/18 10:01:53;;;;;;;14.20;8.10;;;6.50;99.90;;;;;;4986332;28;20323;-15
2024/01/18 10:04:19;;;;;;;12.68;7.55;;;7.00;99.90;;;;;;4973134;28;20053;-15
2024/01/18 10:06:46;;;;;;;12.73;8.15;;;7.60;99.90;;;;;;4989303;28;20066;-16
2024/01/18 10:09:14;;;;;;;11.85;7.05;;;8.00;99.90;;;;;;4989212;28;20094;-16
2024/01/18 10:11:46;;;;;;;9.27;6.35;;;8.50;99.90;;;;;;4986092;28;20142;-21
2024/01/18 10:14:13;;;;;;;9.63;6.00;;;9.00;99.90;;;;;;4979804;28;20041;-19
2024/01/18 10:16:40;;;;;;;11.10;6.65;;;9.40;99.90;;;;;;4987621;28;20251;-17
2024/01/18 10:19:18;;;;;;;9.90;6.22;;;9.80;99.90;;;;;;4984930;28;20050;-18
2024/01/18 10:21:47;;;;;;;9.57;5.90;;;10.20;99.90;;;;;;4973561;28;20074;-19
2024/01/18 10:24:13;;;;;;;7.90;5.15;;;10.60;99.90;;;;;;4973505;28;20354;-18
2024/01/18 10:26:39;;;;;;;9.13;5.87;;;10.90;99.90;;;;;;4972835;28;20330;-19
2024/01/18 10:29:06;;;;;;;10.23;6.07;;;11.20;99.90;;;;;;4992512;28;20373;-19
2024/01/18 10:31:32;;;;;;;7.88;5.00;;;11.50;99.90;;;;;;4991185;28;20034;-16
2024/01/18 10:33:58;;;;;;;7.93;5.07;;;11.80;99.90;;;;;;4989599;28;20223;-15
2024/01/18 10:36:25;;;;;;;6.73;4.50;;;12.00;99.90;;;;;;4965776;28;20046;-15
2024/01/18 10:38:51;;;;;;;7.32;4.68;;;12.30;99.90;;;;;;4991752;28;20030;-14
2024/01/18 10:41:20;;;;;;;7.35;4.55;;;12.60;99.90;;;;;;4990935;28;20034;-15
2024/01/18 10:43:47;;;;;;;7.07;4.60;;;12.90;99.90;;;;;;4989795;28;20219;-15
2024/01/18 10:46:13;;;;;;;6.03;4.15;;;13.20;99.90;;;;;;4987172;28;20034;-16
2024/01/18 10:48:43;;;;;;;5.57;4.03;;;13.40;99.90;;;;;;4968917;28;20101;-15
2024/01/18 10:51:09;;;;;;;5.93;3.88;;;13.60;99.90;;;;;;4988306;28;20296;-15
2024/01/18 10:53:37;;;;;;;5.38;3.90;;;13.80;99.90;;;;;;4985373;28;20358;-16
2024/01/18 10:56:03;;;;;;;5.43;4.10;;;14.00;99.90;;;;;;4989735;28;20334;-15
2024/01/18 10:58:30;;;;;;;5.10;3.90;;;14.20;99.90;;;;;;4987990;28;20031;-15
2024/01/18 11:00:56;;;;;;;4.55;3.28;;;14.40;99.90;;;;;;4973109;28;20266;-16
2024/01/18 11:03:23;;;;;;;5.70;3.30;;;14.60;99.90;;;;;;4981979;28;20045;-17
2024/01/18 11:05:49;;;;;;;4.93;3.58;;;14.80;99.90;;;;;;4986617;28;20049;-17
2024/01/18 11:08:19;;;;;;;4.97;3.42;;;15.00;99.90;;;;;;4975113;28;20095;-17
2024/01/18 11:10:46;;;;;;;6.50;3.37;;;15.20;99.90;;;;;;4992198;28;20073;-17
2024/01/18 11:13:17;;;;;;;5.38;3.10;;;15.40;99.90;;;;;;4986602;28;20042;-17
2024/01/18 11:15:46;;;;;;;5.03;3.45;;;15.50;99.90;;;;;;4950116;28;20098;-18
2024/01/18 11:18:13;;;;;;;5.20;3.15;;;15.70;99.90;;;;;;4985598;28;20065;-17
2024/01/18 11:20:57;;;;;;;4.80;3.38;;;15.90;99.90;;;;;;4988018;28;20050;-17
2024/01/18 11:23:33;;;;;;;4.70;3.13;;;16.10;99.90;;;;;;4989696;28;20038;-18
2024/01/18 11:25:59;;;;;;;4.93;3.00;;;16.30;99.90;;;;;;4988645;28;20118;-18
2024/01/18 11:28:26;;;;;;;4.22;3.30;;;16.50;99.90;;;;;;4989286;28;20092;-19
2024/01/18 11:30:52;;;;;;;4.03;3.17;;;16.70;99.90;;;;;;4991749;28;20038;-18
2024/01/18 11:33:19;;;;;;;4.90;3.40;;;16.80;99.90;;;;;;4983957;28;20057;-19
2024/01/18 11:35:45;;;;;;;4.50;3.25;;;16.90;99.90;;;;;;4983826;28;20254;-18
2024/01/18 11:38:21;;;;;;;4.97;3.25;;;17.00;99.90;;;;;;4989995;28;20026;-19
2024/01/18 11:40:50;;;;;;;5.35;3.20;;;16.90;99.90;;;;;;4988652;28;20541;-19
2024/01/18 11:43:17;;;;;;;5.10;3.10;;;16.70;99.90;;;;;;4987568;28;20033;-19
2024/01/18 11:45:48;;;;;;;5.45;3.17;;;16.30;99.90;;;;;;4970918;28;20262;-18
2024/01/18 11:48:14;;;;;;;5.25;3.15;;;15.80;99.90;;;;;;4969846;28;20359;-19
2024/01/18 11:50:40;;;;;;;4.97;3.37;;;15.40;99.90;;;;;;4987810;28;20108;-19
2024/01/18 11:53:11;;;;;;;4.40;2.83;;;15.20;99.90;;;;;;4987953;28;20513;-20
2024/01/18 11:55:43;;;;;;;4.10;2.72;;;15.20;99.90;;;;;;4990850;28;20220;-19
2024/01/18 11:58:09;;;;;;;5.07;2.65;;;15.10;99.90;;;;;;4988068;28;20046;-20
2024/01/18 12:00:35;;;;;;;3.92;2.70;;;15.20;99.90;;;;;;4983859;28;20042;-19
2024/01/18 12:03:07;;;;;;;4.00;2.97;;;15.30;99.90;;;;;;4986205;28;20090;-20
2024/01/18 12:05:34;;;;;;;5.55;3.10;;;15.40;99.90;;;;;;4986844;28;20121;-19
2024/01/18 12:08:00;;;;;;;5.50;2.90;;;15.50;99.90;;;;;;4990873;28;20050;-19
2024/01/18 12:10:26;;;;;;;4.73;2.93;;;15.60;99.90;;;;;;4989999;28;20050;-19
2024/01/18 12:12:52;;;;;;;4.00;2.60;;;15.60;99.90;;;;;;4987723;28;20045;-20
2024/01/18 12:15:18;;;;;;;4.60;3.15;;;15.70;99.90;;;;;;4983951;28;20049;-18
2024/01/18 12:17:45;;;;;;;4.72;2.90;;;15.70;99.90;;;;;;4985159;28;20066;-19
2024/01/18 12:20:14;;;;;;;4.50;3.00;;;15.70;99.90;;;;;;4987195;28;20019;-18
2024/01/18 12:22:40;;;;;;;3.92;2.75;;;15.70;99.90;;;;;;4969517;28;20049;-18
2024/01/18 12:25:07;;;;;;;4.85;2.83;;;15.60;99.90;;;;;;4987923;28;20026;-19
2024/01/18 12:27:33;;;;;;;4.23;2.93;;;15.40;99.90;;;;;;4984998;28;20069;-18
2024/01/18 12:29:59;;;;;;;4.03;2.80;;;15.20;99.90;;;;;;4988994;28;20353;-19
2024/01/18 12:32:24;;;;;;;4.00;2.40;;;14.90;99.90;;;;;;4989351;28;20506;-19
2024/01/18 12:34:50;;;;;;;4.10;2.57;;;14.60;99.90;;;;;;4989471;28;20405;-18
2024/01/18 12:37:16;;;;;;;5.13;3.03;;;14.40;99.90;;;;;;4987038;28;20082;-18
2024/01/18 12:39:42;;;;;;;3.73;2.37;;;14.20;99.90;;;;;;4964822;28;20078;-18
2024/01/18 12:42:08;;;;;;;5.05;2.83;;;14.10;99.90;;;;;;4973191;28;20243;-19
2024/01/18 12:44:34;;;;;;;4.57;2.80;;;14.00;99.90;;;;;;4991504;28;20481;-19
2024/01/18 12:47:00;;;;;;;3.57;2.53;;;13.80;99.90;;;;;;4977286;28;20109;-19
2024/01/18 12:49:26;;;;;;;4.22;2.67;;;13.80;99.90;;;;;;4996152;28;20069;-18